createdAt,value
2022-11-20T00:02:38.726Z,6.27
2022-11-20T00:05:42.924Z,6.24
2022-11-20T00:08:46.442Z,6.22
2022-11-20T00:11:49.164Z,6.27
2022-11-20T00:14:51.832Z,6.25
2022-11-20T00:17:54.547Z,6.24
2022-11-20T00:21:03.977Z,6.26
2022-11-20T00:24:07.508Z,6.30
2022-11-20T00:27:10.181Z,6.34
2022-11-20T00:30:15.038Z,6.33
2022-11-20T00:33:18.078Z,6.34
2022-11-20T00:36:24.450Z,6.30
2022-11-20T00:39:27.176Z,6.29
2022-11-20T00:42:29.953Z,6.29
2022-11-20T00:45:32.643Z,6.22
2022-11-20T00:48:35.314Z,6.22
2022-11-20T00:51:39.370Z,6.28
2022-11-20T00:54:42.061Z,6.32
2022-11-20T00:57:44.736Z,6.39
2022-11-20T01:00:47.450Z,6.27
2022-11-20T01:03:52.428Z,6.32
2022-11-20T01:06:56.521Z,6.35
2022-11-20T01:09:59.390Z,6.21
2022-11-20T01:13:15.987Z,6.22
2022-11-20T01:16:21.550Z,6.23
2022-11-20T01:19:25.831Z,6.31
2022-11-20T01:22:30.071Z,6.27
2022-11-20T01:25:32.744Z,6.31
2022-11-20T01:28:36.013Z,6.30
2022-11-20T01:31:39.419Z,6.26
2022-11-20T01:34:42.044Z,6.22
2022-11-20T01:37:46.007Z,6.24
2022-11-20T01:40:57.257Z,6.25
2022-11-20T01:43:59.290Z,6.19
2022-11-20T01:47:06.530Z,6.13
2022-11-20T01:50:16.549Z,6.09
2022-11-20T01:53:26.020Z,6.12
2022-11-20T01:56:30.470Z,6.09
2022-11-20T01:59:33.410Z,6.15
2022-11-20T02:02:36.589Z,6.08
2022-11-20T02:05:47.071Z,6.13
2022-11-20T02:08:51.236Z,6.15
2022-11-20T02:11:54.367Z,6.17
2022-11-20T02:14:56.076Z,6.18
2022-11-20T02:17:59.085Z,6.20
2022-11-20T02:21:06.913Z,6.22
2022-11-20T02:24:13.345Z,6.25
2022-11-20T02:27:18.693Z,6.32
2022-11-20T02:30:21.605Z,6.27
2022-11-20T02:33:24.219Z,6.23
2022-11-20T02:36:29.183Z,6.27
2022-11-20T02:39:33.291Z,6.26
2022-11-20T02:42:36.009Z,6.27
2022-11-20T02:45:38.906Z,6.29
2022-11-20T02:48:41.644Z,6.37
2022-11-20T02:51:44.395Z,6.37
2022-11-20T02:54:48.405Z,6.41
2022-11-20T02:57:51.059Z,6.45
2022-11-20T03:00:54.510Z,6.47
2022-11-20T03:03:57.488Z,6.49
2022-11-20T03:07:00.341Z,6.44
2022-11-20T03:10:05.150Z,6.44
2022-11-20T03:13:07.783Z,6.42
2022-11-20T03:16:12.628Z,6.42
2022-11-20T03:19:15.444Z,6.44
2022-11-20T03:22:18.112Z,6.43
2022-11-20T03:25:22.442Z,6.44
2022-11-20T03:28:25.193Z,6.41
2022-11-20T03:31:30.105Z,6.39
2022-11-20T03:34:32.797Z,6.35
2022-11-20T03:37:35.420Z,6.36
2022-11-20T03:40:39.839Z,6.36
2022-11-20T03:43:42.806Z,6.38
2022-11-20T03:46:45.476Z,6.44
2022-11-20T03:49:48.118Z,6.50
2022-11-20T03:52:50.778Z,6.56
2022-11-20T03:55:54.792Z,6.59
2022-11-20T03:58:57.767Z,6.57
2022-11-20T04:02:00.453Z,6.50
2022-11-20T04:05:03.158Z,6.42
2022-11-20T04:08:06.425Z,6.34
2022-11-20T04:11:15.869Z,6.32
2022-11-20T04:14:18.672Z,6.33
2022-11-20T04:17:21.327Z,6.28
2022-11-20T04:20:24.068Z,6.27
2022-11-20T04:23:28.829Z,6.25
2022-11-20T04:26:33.620Z,6.24
2022-11-20T04:29:36.455Z,6.23
2022-11-20T04:32:39.081Z,6.26
2022-11-20T04:35:41.736Z,6.29
2022-11-20T04:38:44.620Z,6.24
2022-11-20T04:41:48.677Z,6.30
2022-11-20T04:44:51.330Z,6.29
2022-11-20T04:47:54.618Z,6.32
2022-11-20T04:50:57.563Z,6.39
2022-11-20T04:54:00.517Z,6.38
2022-11-20T04:57:04.737Z,6.42
2022-11-20T05:00:08.720Z,6.48
2022-11-20T05:03:11.412Z,6.55
2022-11-20T05:06:15.910Z,6.52
2022-11-20T05:09:18.891Z,6.47
2022-11-20T05:12:23.196Z,6.40
2022-11-20T05:15:26.180Z,6.36
2022-11-20T05:18:28.979Z,6.41
2022-11-20T05:21:32.798Z,6.42
2022-11-20T05:24:35.715Z,6.39
2022-11-20T05:27:39.866Z,6.38
2022-11-20T05:30:42.544Z,6.45
2022-11-20T05:33:46.339Z,6.47
2022-11-20T05:36:49.026Z,6.48
2022-11-20T05:39:51.720Z,6.60
2022-11-20T05:42:55.745Z,6.67
2022-11-20T05:45:58.396Z,6.71
2022-11-20T05:49:01.035Z,6.75
2022-11-20T05:52:03.699Z,6.86
2022-11-20T05:55:07.279Z,6.86
2022-11-20T05:58:11.280Z,6.96
2022-11-20T06:01:16.147Z,7.04
2022-11-20T06:04:18.790Z,7.05
2022-11-20T06:07:21.605Z,7.06
2022-11-20T06:10:24.360Z,7.08
2022-11-20T06:13:31.264Z,7.11
2022-11-20T06:16:33.899Z,7.12
2022-11-20T06:19:38.077Z,7.12
2022-11-20T06:22:40.781Z,7.22
2022-11-20T06:25:44.856Z,7.15
2022-11-20T06:28:49.892Z,7.13
2022-11-20T06:31:52.640Z,7.05
2022-11-20T06:34:55.378Z,7.08
2022-11-20T06:37:58.341Z,7.11
2022-11-20T06:41:00.958Z,7.15
2022-11-20T06:44:05.960Z,7.15
2022-11-20T06:47:08.677Z,7.16
2022-11-20T06:50:11.578Z,7.11
2022-11-20T06:53:14.289Z,7.10
2022-11-20T06:56:16.994Z,7.07
2022-11-20T06:59:22.560Z,7.14
2022-11-20T07:02:25.471Z,7.15
2022-11-20T07:05:28.118Z,7.15
2022-11-20T07:08:31.047Z,7.19
2022-11-20T07:11:33.793Z,7.26
2022-11-20T07:14:37.815Z,7.23
2022-11-20T07:17:40.460Z,7.35
2022-11-20T07:20:43.232Z,7.41
2022-11-20T07:23:46.100Z,7.46
2022-11-20T07:26:50.035Z,7.44
2022-11-20T07:29:54.042Z,7.48
2022-11-20T07:32:57.916Z,7.48
2022-11-20T07:39:31.118Z,7.56
2022-11-20T07:42:33.937Z,7.54
2022-11-20T07:45:38.179Z,7.57
2022-11-20T07:48:40.851Z,7.68
2022-11-20T07:51:43.621Z,7.60
2022-11-20T07:54:46.280Z,7.62
2022-11-20T07:57:56.330Z,7.61
2022-11-20T08:01:00.700Z,7.63
2022-11-20T08:04:03.399Z,7.65
2022-11-20T08:07:06.268Z,7.70
2022-11-20T08:10:11.342Z,7.74
2022-11-20T08:13:31.555Z,7.75
2022-11-20T08:16:35.569Z,7.79
2022-11-20T08:19:42.880Z,7.87
2022-11-20T08:22:45.577Z,7.94
2022-11-20T08:25:51.878Z,8.04
2022-11-20T08:28:56.417Z,8.03
2022-11-20T08:32:00.468Z,8.11
2022-11-20T08:35:03.198Z,8.17
2022-11-20T08:38:06.817Z,8.28
2022-11-20T08:41:27.945Z,8.36
2022-11-20T08:44:30.614Z,8.47
2022-11-20T08:47:34.592Z,8.53
2022-11-20T08:50:37.252Z,8.64
2022-11-20T08:53:40.346Z,8.55
2022-11-20T08:56:43.020Z,8.63
2022-11-20T09:00:05.033Z,8.66
2022-11-20T09:03:09.854Z,8.53
2022-11-20T09:06:12.484Z,8.50
2022-11-20T09:09:15.127Z,8.55
2022-11-20T09:12:17.976Z,8.54
2022-11-20T09:15:21.495Z,8.61
2022-11-20T09:18:26.413Z,8.65
2022-11-20T09:21:29.092Z,8.66
2022-11-20T09:24:31.750Z,8.63
2022-11-20T09:27:34.419Z,8.66
2022-11-20T09:30:37.434Z,8.59
2022-11-20T09:33:41.538Z,8.54
2022-11-20T09:36:44.187Z,8.49
2022-11-20T09:39:47.143Z,8.52
2022-11-20T09:42:58.511Z,8.47
2022-11-20T09:46:10.910Z,8.43
2022-11-20T09:49:32.573Z,8.41
2022-11-20T09:52:44.267Z,8.46
2022-11-20T09:55:47.972Z,8.43
2022-11-20T09:58:53.973Z,8.33
2022-11-20T10:01:57.690Z,8.36
2022-11-20T10:05:08.474Z,8.41
2022-11-20T10:08:19.730Z,8.34
2022-11-20T10:11:35.317Z,8.42
2022-11-20T10:14:50.548Z,8.37
2022-11-20T10:18:11.381Z,8.36
2022-11-20T10:21:25.760Z,8.31
2022-11-20T10:24:57.058Z,8.33
2022-11-20T10:28:20.842Z,8.31
2022-11-20T10:31:33.528Z,8.29
2022-11-20T10:34:46.759Z,8.30
2022-11-20T10:37:56.727Z,8.35
2022-11-20T10:41:16.502Z,8.29
2022-11-20T10:44:37.061Z,8.26
2022-11-20T10:47:39.701Z,8.23
2022-11-20T10:50:51.842Z,8.14
2022-11-20T10:54:03.808Z,8.10
2022-11-20T10:57:16.436Z,8.12
2022-11-20T11:00:19.180Z,8.11
2022-11-20T11:03:28.239Z,8.12
2022-11-20T11:06:38.296Z,8.13
2022-11-20T11:09:45.991Z,8.11
2022-11-20T11:12:49.887Z,8.12
2022-11-20T11:15:53.360Z,8.14
2022-11-20T11:19:06.585Z,8.31
2022-11-20T11:22:17.824Z,8.40
2022-11-20T11:25:30.878Z,8.61
2022-11-20T11:28:33.817Z,8.99
2022-11-20T11:31:37.287Z,9.49
2022-11-20T11:34:39.951Z,9.74
2022-11-20T11:37:42.981Z,10.21
2022-11-20T11:40:48.649Z,10.80
2022-11-20T11:44:12.593Z,11.41
2022-11-20T11:47:25.008Z,12.26
2022-11-20T11:50:29.466Z,12.25
2022-11-20T11:53:32.457Z,12.03
2022-11-20T11:56:36.684Z,11.62
2022-11-20T11:59:53.487Z,11.26
2022-11-20T12:03:06.243Z,10.84
2022-11-20T12:06:14.777Z,10.71
2022-11-20T12:09:20.961Z,10.71
2022-11-20T12:12:29.392Z,11.43
2022-11-20T12:15:35.680Z,12.01
2022-11-20T12:18:38.346Z,12.94
2022-11-20T12:21:59.981Z,14.48
2022-11-20T12:25:11.576Z,15.52
2022-11-20T12:28:37.848Z,15.61
2022-11-20T12:31:54.993Z,16.42
2022-11-20T12:35:11.225Z,17.55
2022-11-20T12:38:47.276Z,18.10
2022-11-20T12:42:16.614Z,17.61
2022-11-20T12:45:55.359Z,17.51
2022-11-20T12:49:17.820Z,15.44
2022-11-20T12:52:37.153Z,13.53
2022-11-20T12:55:51.590Z,13.10
2022-11-20T12:59:09.954Z,13.39
2022-11-20T13:02:26.384Z,12.80
2022-11-20T13:05:36.381Z,12.18
2022-11-20T13:08:41.764Z,11.55
2022-11-20T13:11:49.638Z,10.97
2022-11-20T13:14:58.315Z,10.50
2022-11-20T13:18:04.955Z,10.25
2022-11-20T13:21:17.351Z,10.37
2022-11-20T13:24:27.339Z,10.69
2022-11-20T13:27:31.875Z,10.77
2022-11-20T13:30:36.360Z,11.09
2022-11-20T13:33:41.066Z,11.23
2022-11-20T13:36:53.104Z,11.26
2022-11-20T13:40:07.670Z,11.16
2022-11-20T13:43:19.987Z,11.04
2022-11-20T13:46:25.459Z,10.92
2022-11-20T13:49:34.111Z,10.83
2022-11-20T13:52:48.255Z,10.58
2022-11-20T13:55:57.264Z,10.42
2022-11-20T13:59:14.605Z,10.38
2022-11-20T14:02:21.378Z,10.28
2022-11-20T14:05:25.850Z,10.13
2022-11-20T14:08:35.569Z,10.06
2022-11-20T14:11:38.211Z,9.92
2022-11-20T14:14:51.979Z,9.73
2022-11-20T14:17:54.826Z,9.68
2022-11-20T14:21:02.536Z,9.63
2022-11-20T14:24:06.566Z,9.57
2022-11-20T14:27:15.333Z,9.53
2022-11-20T14:30:20.441Z,9.35
2022-11-20T14:33:25.770Z,9.30
2022-11-20T14:36:30.031Z,9.22
2022-11-20T14:39:35.788Z,9.26
2022-11-20T14:42:38.463Z,9.24
2022-11-20T14:45:41.232Z,9.24
2022-11-20T14:48:46.484Z,9.22
2022-11-20T14:52:01.619Z,9.14
2022-11-20T14:55:04.523Z,9.09
2022-11-20T14:58:08.608Z,9.06
2022-11-20T15:01:15.351Z,9.02
2022-11-20T15:04:18.123Z,8.97
2022-11-20T15:07:30.561Z,8.98
2022-11-20T15:10:33.585Z,8.89
2022-11-20T15:13:39.445Z,8.84
2022-11-20T15:16:42.476Z,8.78
2022-11-20T15:19:45.423Z,8.77
2022-11-20T15:22:49.489Z,8.60
2022-11-20T15:25:52.429Z,8.54
2022-11-20T15:28:55.912Z,8.43
2022-11-20T15:31:58.738Z,8.38
2022-11-20T15:35:01.569Z,8.37
2022-11-20T15:38:05.761Z,8.32
2022-11-20T15:41:09.254Z,8.26
2022-11-20T15:44:12.144Z,8.16
2022-11-20T15:47:14.859Z,8.02
2022-11-20T15:50:19.554Z,7.86
2022-11-20T15:53:23.571Z,7.72
2022-11-20T15:56:26.630Z,7.60
2022-11-20T15:59:29.339Z,7.51
2022-11-20T16:02:32.004Z,7.42
2022-11-20T16:05:34.781Z,7.35
2022-11-20T16:08:38.851Z,7.33
2022-11-20T16:11:41.523Z,7.37
2022-11-20T16:15:02.077Z,7.41
2022-11-20T16:18:04.932Z,7.51
2022-11-20T16:21:13.336Z,7.48
2022-11-20T16:24:17.934Z,7.48
2022-11-20T16:27:20.718Z,7.56
2022-11-20T16:30:23.375Z,7.66
2022-11-20T16:33:26.022Z,7.72
2022-11-20T16:36:30.848Z,7.73
2022-11-20T16:39:34.836Z,7.78
2022-11-20T16:42:38.613Z,7.78
2022-11-20T16:45:46.021Z,7.81
2022-11-20T16:48:54.472Z,7.83
2022-11-20T16:51:57.135Z,7.85
2022-11-20T16:55:01.291Z,7.89
2022-11-20T16:58:03.960Z,7.95
2022-11-20T17:01:10.454Z,7.93
2022-11-20T17:04:13.377Z,7.94
2022-11-20T17:07:16.476Z,7.92
2022-11-20T17:10:20.686Z,7.94
2022-11-20T17:13:23.291Z,7.92
2022-11-20T17:16:26.033Z,7.96
2022-11-20T17:19:28.735Z,7.97
2022-11-20T17:22:32.537Z,8.09
2022-11-20T17:25:36.616Z,8.09
2022-11-20T17:28:39.694Z,8.14
2022-11-20T17:31:42.703Z,8.14
2022-11-20T17:34:45.428Z,8.07
2022-11-20T17:37:48.066Z,8.12
2022-11-20T17:40:52.255Z,8.22
2022-11-20T17:43:56.296Z,8.26
2022-11-20T17:46:58.919Z,8.30
2022-11-20T17:50:01.577Z,8.31
2022-11-20T17:53:04.291Z,8.29
2022-11-20T17:56:26.408Z,8.28
2022-11-20T17:59:29.116Z,8.27
2022-11-20T18:02:32.007Z,8.28
2022-11-20T18:05:34.685Z,8.25
2022-11-20T18:08:37.403Z,8.31
2022-11-20T18:11:42.881Z,8.38
2022-11-20T18:14:45.610Z,8.35
2022-11-20T18:17:48.353Z,8.37
2022-11-20T18:20:54.416Z,8.32
2022-11-20T18:23:57.767Z,8.35
2022-11-20T18:27:01.842Z,8.37
2022-11-20T18:30:05.196Z,8.37
2022-11-20T18:33:08.205Z,8.32
2022-11-20T18:36:12.244Z,8.29
2022-11-20T18:39:15.558Z,8.25
2022-11-20T18:42:37.266Z,8.21
2022-11-20T18:45:39.910Z,8.23
2022-11-20T18:48:42.618Z,8.26
2022-11-20T18:51:48.219Z,8.20
2022-11-20T18:54:51.671Z,8.19
2022-11-20T18:57:56.100Z,8.20
2022-11-20T19:01:05.981Z,8.02
2022-11-20T19:04:09.553Z,7.95
2022-11-20T19:07:12.988Z,7.92
2022-11-20T19:10:18.815Z,7.90
2022-11-20T19:13:22.987Z,7.85
2022-11-20T19:16:25.877Z,7.91
2022-11-20T19:19:29.006Z,7.98
2022-11-20T19:22:31.671Z,7.94
2022-11-20T19:25:38.116Z,7.79
2022-11-20T19:28:42.488Z,7.75
2022-11-20T19:31:45.329Z,7.67
2022-11-20T19:34:48.076Z,7.71
2022-11-20T19:37:52.621Z,7.75
2022-11-20T19:40:55.270Z,7.74
2022-11-20T19:44:00.847Z,7.72
2022-11-20T19:47:09.012Z,7.76
2022-11-20T19:50:18.713Z,7.80
2022-11-20T19:53:21.393Z,7.71
2022-11-20T19:56:27.175Z,7.66
2022-11-20T19:59:31.195Z,7.65
2022-11-20T20:02:34.132Z,7.59
2022-11-20T20:05:36.782Z,7.56
2022-11-20T20:08:39.443Z,7.57
2022-11-20T20:11:46.270Z,7.49
2022-11-20T20:14:50.259Z,7.41
2022-11-20T20:17:53.269Z,7.36
2022-11-20T20:20:58.501Z,7.32
2022-11-20T20:24:05.736Z,7.35
2022-11-20T20:27:08.444Z,7.34
2022-11-20T20:30:14.016Z,7.40
2022-11-20T20:33:16.704Z,7.37
2022-11-20T20:36:20.914Z,7.34
2022-11-20T20:39:24.724Z,7.36
2022-11-20T20:42:27.710Z,7.33
2022-11-20T20:45:31.863Z,7.24
2022-11-20T20:48:34.517Z,7.26
2022-11-20T20:51:37.742Z,7.35
2022-11-20T20:54:43.362Z,7.37
2022-11-20T20:57:46.115Z,7.28
2022-11-20T21:00:50.191Z,7.22
2022-11-20T21:03:52.800Z,7.28
2022-11-20T21:06:55.509Z,7.24
2022-11-20T21:09:58.174Z,7.23
2022-11-20T21:13:00.884Z,7.26
2022-11-20T21:16:07.735Z,7.31
2022-11-20T21:19:10.613Z,7.24
2022-11-20T21:22:13.324Z,7.14
2022-11-20T21:25:16.021Z,7.13
2022-11-20T21:28:18.784Z,7.20
2022-11-20T21:31:24.854Z,7.08
2022-11-20T21:34:27.669Z,6.97
2022-11-20T21:37:30.258Z,6.78
2022-11-20T21:40:32.982Z,6.80
2022-11-20T21:43:35.871Z,6.77
2022-11-20T21:46:42.176Z,6.75
2022-11-20T21:49:44.826Z,6.85
2022-11-20T21:52:47.589Z,6.85
2022-11-20T21:55:54.591Z,6.90
2022-11-20T21:58:58.103Z,6.89
2022-11-20T22:02:02.118Z,6.93
2022-11-20T22:05:05.102Z,6.85
2022-11-20T22:08:07.881Z,6.85
2022-11-20T22:11:12.668Z,6.86
2022-11-20T22:14:21.732Z,6.87
2022-11-20T22:17:39.899Z,6.87
2022-11-20T22:20:42.968Z,6.80
2022-11-20T22:23:45.909Z,6.85
2022-11-20T22:26:48.802Z,6.91
2022-11-20T22:29:51.449Z,6.99
2022-11-20T22:32:56.393Z,7.15
2022-11-20T22:36:02.400Z,7.18
2022-11-20T22:39:05.708Z,7.14
2022-11-20T22:42:08.560Z,7.08
2022-11-20T22:45:12.434Z,7.09
2022-11-20T22:48:16.447Z,7.10
2022-11-20T22:51:20.990Z,7.00
2022-11-20T22:54:24.052Z,6.96
2022-11-20T22:57:26.855Z,6.98
2022-11-20T23:00:29.527Z,6.91
2022-11-20T23:03:33.594Z,6.88
2022-11-20T23:06:36.385Z,6.95
2022-11-20T23:09:39.063Z,7.00
2022-11-20T23:12:41.816Z,7.11
2022-11-20T23:15:44.412Z,7.10
2022-11-20T23:18:48.411Z,7.14
2022-11-20T23:21:51.059Z,7.12
2022-11-20T23:24:53.695Z,7.04
2022-11-20T23:27:56.324Z,7.07
2022-11-20T23:30:59.439Z,7.03
2022-11-20T23:34:04.018Z,6.95
2022-11-20T23:37:06.650Z,6.95
2022-11-20T23:40:10.149Z,6.96
2022-11-20T23:43:18.847Z,7.01
2022-11-20T23:46:21.795Z,7.00
2022-11-20T23:49:25.816Z,7.06
2022-11-20T23:52:28.431Z,7.12
2022-11-20T23:55:31.411Z,7.11
2022-11-20T23:58:35.888Z,7.14
